Gurney, Wisconsin
Current Conditions -  °F | °C
As of 6:15 AM on Monday 20 Oct 2014 (Local Time) from KIWD Reporting Station
Overcast Overcast  
Wind Chill: 44°   Ceiling: 2800
Heat Index: 46°   Visibility: 10mi
Dew Point: 43°   Wind: 5mph
Humidity: 87%   Direction: 310°NW
Pressure: 29.83"   Gusts: NA
Location:  46.4902°N, 90.4521°W
Report Text: KIWD 201115Z AUTO 31004KT 10SM SCT021 OVC028 08/06 A2983 RMK AO1
Loading
Personal Weather Stations






























Interactive Weather Map
Tropical Storm Tracking
New forecast layout! Learn more

10-Day Weather Forecast

Advertisements
Track Severe Weather on mobile